Time;durP1;ratioP1;P1;durP2;ratioP2;P2;SDS_P1;SDS_P2;PMS_P1;PMS_P2;Temp;Humidity;BMP_temperature;BMP_pressure;BME280_temperature;BME280_humidity;BME280_pressure;Samples;Min_cycle;Max_cycle;Signal;HPM_P1;HPM_P2
2024/01/17 00:00:32;;;;;;;12.95;5.82;;;-2.40;93.60;;;;;;2048536;28;20234;-65
2024/01/17 00:01:32;;;;;;;9.20;5.83;;;-2.30;93.60;;;;;;2042430;28;20379;-65
2024/01/17 00:02:33;;;;;;;9.57;5.83;;;-2.30;93.70;;;;;;2041356;28;20317;-65
2024/01/17 00:03:33;;;;;;;9.43;6.17;;;-2.30;93.80;;;;;;2042914;28;20817;-65
2024/01/17 00:04:34;;;;;;;10.67;6.20;;;-2.20;93.90;;;;;;2047592;28;20227;-64
2024/01/17 00:05:35;;;;;;;9.17;5.77;;;-2.10;94.00;;;;;;2050244;28;20230;-65
2024/01/17 00:06:37;;;;;;;12.07;6.30;;;-2.10;94.10;;;;;;2043871;28;20238;-65
2024/01/17 00:07:38;;;;;;;9.63;6.07;;;-2.10;94.40;;;;;;2047628;28;20701;-65
2024/01/17 00:08:39;;;;;;;9.63;5.90;;;-2.10;94.70;;;;;;2047437;28;20745;-65
2024/01/17 00:09:39;;;;;;;11.03;6.47;;;-2.10;94.80;;;;;;2043745;28;20235;-65
2024/01/17 00:10:40;;;;;;;10.57;6.70;;;-2.10;94.90;;;;;;2047503;28;20815;-65
2024/01/17 00:11:44;;;;;;;11.00;6.37;;;-2.00;95.20;;;;;;2046134;28;20289;-65
2024/01/17 00:12:45;;;;;;;12.95;6.97;;;-2.00;95.30;;;;;;2041528;28;20305;-65
2024/01/17 00:13:46;;;;;;;9.27;6.00;;;-2.00;95.40;;;;;;2049545;28;20680;-65
2024/01/17 00:14:46;;;;;;;11.67;6.40;;;-2.00;95.50;;;;;;2048343;28;20226;-65
2024/01/17 00:15:47;;;;;;;10.30;5.70;;;-2.00;95.50;;;;;;2040411;28;20275;-65
2024/01/17 00:16:48;;;;;;;13.90;6.50;;;-1.90;95.60;;;;;;2037617;29;20237;-65
2024/01/17 00:17:48;;;;;;;10.30;6.13;;;-1.90;95.70;;;;;;2035359;28;20290;-65
2024/01/17 00:18:49;;;;;;;11.57;6.87;;;-1.90;95.70;;;;;;2047005;28;20219;-65
2024/01/17 00:19:50;;;;;;;9.97;6.23;;;-1.90;96.20;;;;;;2049470;28;20333;-65
2024/01/17 00:20:50;;;;;;;10.57;6.43;;;-1.80;96.20;;;;;;2038970;28;20263;-65
2024/01/17 00:21:51;;;;;;;12.53;6.67;;;-1.80;96.20;;;;;;2051185;28;20235;-65
2024/01/17 00:22:54;;;;;;;10.87;5.90;;;-1.70;96.20;;;;;;2050217;28;20222;-65
2024/01/17 00:23:54;;;;;;;12.48;6.88;;;-1.60;96.30;;;;;;2048146;28;20311;-65
2024/01/17 00:24:55;;;;;;;10.73;6.10;;;-1.60;96.30;;;;;;2046916;28;20227;-65
2024/01/17 00:25:56;;;;;;;12.10;6.97;;;-1.60;96.90;;;;;;2046325;28;20219;-65
2024/01/17 00:26:56;;;;;;;11.53;6.30;;;-1.50;96.70;;;;;;2051058;28;20692;-65
2024/01/17 00:27:57;;;;;;;16.93;6.57;;;-1.40;96.70;;;;;;2039629;28;20310;-65
2024/01/17 00:28:58;;;;;;;11.67;6.83;;;-1.40;96.70;;;;;;2036673;29;20232;-65
2024/01/17 00:29:59;;;;;;;11.73;6.30;;;-1.40;96.80;;;;;;2048840;28;20279;-65
2024/01/17 00:30:59;;;;;;;10.80;6.80;;;-1.30;96.90;;;;;;2047398;28;20230;-65
2024/01/17 00:32:01;;;;;;;8.67;5.73;;;-1.20;97.00;;;;;;2046835;28;20245;-65
2024/01/17 00:33:02;;;;;;;11.32;6.43;;;-1.20;96.90;;;;;;2044613;28;20222;-65
2024/01/17 00:34:03;;;;;;;9.33;6.47;;;-1.20;97.00;;;;;;2048643;28;20186;-65
2024/01/17 00:35:04;;;;;;;8.83;5.80;;;-1.10;97.00;;;;;;2048735;28;20203;-65
2024/01/17 00:36:05;;;;;;;11.30;6.40;;;-1.10;97.20;;;;;;2041363;28;20309;-65
2024/01/17 00:37:05;;;;;;;10.15;5.78;;;-1.00;97.20;;;;;;2039700;28;20216;-65
2024/01/17 00:38:06;;;;;;;11.87;6.53;;;-1.00;97.30;;;;;;2046607;28;20732;-65
2024/01/17 00:39:07;;;;;;;11.17;6.33;;;-0.90;97.80;;;;;;2049223;28;20609;-64
2024/01/17 00:40:09;;;;;;;10.17;6.20;;;-0.90;97.90;;;;;;2046673;28;20191;-65
2024/01/17 00:41:10;;;;;;;9.93;5.55;;;-0.90;98.10;;;;;;2049361;28;20669;-65
2024/01/17 00:42:11;;;;;;;9.13;5.97;;;-0.90;98.30;;;;;;2044526;28;20207;-66
2024/01/17 00:43:11;;;;;;;10.57;5.70;;;-0.90;98.50;;;;;;2044845;28;20242;-66
2024/01/17 00:44:16;;;;;;;8.23;5.70;;;-0.80;98.70;;;;;;2040021;28;20272;-65
2024/01/17 00:45:17;;;;;;;12.30;6.72;;;-0.70;98.60;;;;;;2046755;28;20215;-66
2024/01/17 00:46:18;;;;;;;10.30;5.83;;;-0.60;98.60;;;;;;2046799;28;20247;-65
2024/01/17 00:47:18;;;;;;;10.57;5.57;;;-0.60;98.50;;;;;;2046135;28;20692;-65
2024/01/17 00:48:19;;;;;;;11.27;6.10;;;-0.60;98.50;;;;;;2049189;28;20234;-65
2024/01/17 00:49:20;;;;;;;10.77;5.60;;;-0.50;98.50;;;;;;2049430;28;20681;-65
2024/01/17 00:50:20;;;;;;;8.03;5.40;;;-0.50;98.50;;;;;;2051631;28;20238;-64
2024/01/17 00:51:25;;;;;;;8.40;5.60;;;-0.40;98.30;;;;;;2048364;28;20279;-65
2024/01/17 00:52:25;;;;;;;9.00;5.43;;;-0.40;98.20;;;;;;2046923;28;20595;-65
2024/01/17 00:53:26;;;;;;;10.23;5.77;;;-0.40;98.00;;;;;;2046317;28;20311;-65
2024/01/17 00:54:27;;;;;;;10.17;5.60;;;-0.40;98.30;;;;;;2048139;28;20237;-66
2024/01/17 00:55:27;;;;;;;8.47;4.77;;;-0.40;98.40;;;;;;2054384;28;20289;-65
2024/01/17 00:56:32;;;;;;;8.50;5.37;;;-0.30;98.40;;;;;;2049474;28;20227;-65
2024/01/17 00:57:32;;;;;;;8.07;5.40;;;-0.30;98.60;;;;;;2051882;28;20223;-65
2024/01/17 00:58:33;;;;;;;10.73;5.83;;;-0.40;98.70;;;;;;2053081;28;20232;-65
2024/01/17 00:59:34;;;;;;;9.73;5.50;;;-0.30;99.00;;;;;;2051670;28;20232;-65
2024/01/17 01:00:35;;;;;;;10.63;5.75;;;-0.30;99.20;;;;;;2046870;28;20235;-65
2024/01/17 01:01:36;;;;;;;8.83;5.87;;;-0.30;99.40;;;;;;2048467;28;20265;-65
2024/01/17 01:02:36;;;;;;;7.53;4.70;;;-0.30;99.70;;;;;;2049994;28;20771;-65
2024/01/17 01:03:37;;;;;;;9.33;5.50;;;-0.30;99.90;;;;;;2047783;28;20242;-66
2024/01/17 01:04:38;;;;;;;9.80;5.40;;;-0.30;99.90;;;;;;2050631;28;20597;-65
2024/01/17 01:05:40;;;;;;;7.67;4.97;;;-0.30;99.90;;;;;;2047576;28;20227;-65
2024/01/17 01:06:40;;;;;;;12.23;5.95;;;-0.20;99.90;;;;;;2047426;28;20293;-65
2024/01/17 01:07:41;;;;;;;9.33;5.07;;;-0.10;99.90;;;;;;2049062;28;20235;-65
2024/01/17 01:08:42;;;;;;;7.97;5.23;;;-0.10;99.90;;;;;;2053765;28;20223;-65
2024/01/17 01:09:42;;;;;;;9.20;5.67;;;-0.10;99.90;;;;;;2041145;28;20256;-65
2024/01/17 01:10:43;;;;;;;5.97;4.30;;;0.00;99.90;;;;;;2045802;28;20693;-65
2024/01/17 01:11:44;;;;;;;8.50;5.37;;;0.00;99.90;;;;;;2047889;28;20227;-65
2024/01/17 01:12:44;;;;;;;8.77;5.60;;;0.00;99.90;;;;;;2052042;28;20581;-65
2024/01/17 01:13:45;;;;;;;7.87;4.93;;;0.00;99.90;;;;;;2051881;28;20225;-66
2024/01/17 01:14:46;;;;;;;10.13;5.63;;;0.00;99.90;;;;;;2058244;28;20313;-65
2024/01/17 01:15:47;;;;;;;6.30;4.13;;;0.00;99.90;;;;;;2054161;28;20289;-65
2024/01/17 01:16:48;;;;;;;7.88;5.05;;;0.00;99.90;;;;;;2049048;28;20326;-65
2024/01/17 01:17:48;;;;;;;10.17;5.80;;;0.10;99.90;;;;;;2049889;28;20234;-65
2024/01/17 01:18:49;;;;;;;6.60;4.73;;;0.20;99.90;;;;;;2050189;28;20223;-66
2024/01/17 01:19:50;;;;;;;9.57;5.53;;;0.20;99.90;;;;;;2041655;28;20315;-65
2024/01/17 01:20:51;;;;;;;11.90;6.03;;;0.20;99.90;;;;;;2050986;28;21016;-65
2024/01/17 01:21:51;;;;;;;8.57;5.17;;;0.10;99.90;;;;;;2048717;28;20219;-65
2024/01/17 01:22:52;;;;;;;9.37;6.10;;;0.10;99.90;;;;;;2049108;28;20601;-66
2024/01/17 01:23:53;;;;;;;11.07;6.13;;;0.20;99.90;;;;;;2048773;28;20231;-65
2024/01/17 01:24:54;;;;;;;8.98;6.07;;;0.30;99.90;;;;;;2048138;28;20230;-65
2024/01/17 01:25:54;;;;;;;8.33;5.90;;;0.30;99.90;;;;;;2042226;28;20274;-65
2024/01/17 01:26:55;;;;;;;10.93;6.73;;;0.40;99.90;;;;;;2047619;28;20224;-65
2024/01/17 01:27:56;;;;;;;12.03;6.90;;;0.40;99.90;;;;;;2048453;28;20217;-66
2024/01/17 01:28:56;;;;;;;11.40;6.80;;;0.40;99.90;;;;;;2047108;28;20227;-65
2024/01/17 01:29:57;;;;;;;11.03;5.93;;;0.60;99.90;;;;;;2048048;28;20240;-65
2024/01/17 01:30:58;;;;;;;10.13;6.20;;;0.60;99.90;;;;;;2047024;28;20270;-65
2024/01/17 01:31:59;;;;;;;9.50;6.57;;;0.70;99.90;;;;;;2050958;28;20223;-65
2024/01/17 01:32:59;;;;;;;12.80;6.73;;;0.60;99.90;;;;;;2049940;28;20222;-64
2024/01/17 01:34:00;;;;;;;11.63;7.57;;;0.60;99.90;;;;;;2050213;28;20227;-65
2024/01/17 01:35:00;;;;;;;12.03;7.13;;;0.70;99.90;;;;;;2050078;28;20234;-64
2024/01/17 01:36:01;;;;;;;13.03;8.70;;;0.70;99.90;;;;;;2047489;28;20188;-65
2024/01/17 01:37:02;;;;;;;12.93;7.70;;;0.70;99.90;;;;;;2047158;28;20595;-65
2024/01/17 01:38:03;;;;;;;12.33;8.23;;;0.70;99.90;;;;;;2049839;28;20218;-64
2024/01/17 01:39:03;;;;;;;13.23;8.27;;;0.80;99.90;;;;;;2050186;28;20187;-64
2024/01/17 01:40:07;;;;;;;13.17;7.70;;;0.80;99.90;;;;;;2048915;28;20193;-65
2024/01/17 01:41:08;;;;;;;12.73;7.32;;;0.80;99.90;;;;;;2049370;28;20695;-65
2024/01/17 01:42:08;;;;;;;12.43;8.10;;;0.80;99.90;;;;;;2048050;28;20195;-64
2024/01/17 01:43:23;;;;;;;11.50;7.37;;;0.70;99.90;;;;;;2047653;28;20189;-65
2024/01/17 01:44:24;;;;;;;14.40;8.52;;;0.70;99.90;;;;;;2047351;28;20242;-65
2024/01/17 01:45:25;;;;;;;14.27;9.23;;;0.70;99.90;;;;;;2051628;28;20260;-65
2024/01/17 01:46:30;;;;;;;14.20;8.37;;;0.70;99.90;;;;;;2047769;28;20622;-65
2024/01/17 01:47:31;;;;;;;11.13;7.30;;;0.70;99.90;;;;;;2051530;28;20235;-65
2024/01/17 01:48:33;;;;;;;14.63;8.15;;;0.80;99.90;;;;;;2032418;29;20620;-65
2024/01/17 01:49:36;;;;;;;14.63;8.73;;;0.90;99.90;;;;;;2032850;29;20292;-65
2024/01/17 01:50:37;;;;;;;13.30;7.93;;;0.90;99.90;;;;;;2045086;28;20251;-65
2024/01/17 01:51:39;;;;;;;14.10;9.50;;;0.90;99.90;;;;;;2042853;28;20229;-65
2024/01/17 01:52:42;;;;;;;17.10;8.98;;;0.90;99.90;;;;;;2054309;28;20236;-66
2024/01/17 01:53:48;;;;;;;14.27;9.00;;;0.80;99.90;;;;;;2043892;28;20621;-65
2024/01/17 01:54:49;;;;;;;15.02;8.68;;;0.80;99.90;;;;;;2044328;28;20615;-64
2024/01/17 01:55:52;;;;;;;15.60;9.98;;;0.90;99.90;;;;;;2043666;28;20219;-65
2024/01/17 01:56:54;;;;;;;14.65;8.73;;;0.90;99.90;;;;;;2048736;28;20216;-65
2024/01/17 01:57:55;;;;;;;15.35;9.63;;;1.00;99.90;;;;;;2044666;28;20213;-65
2024/01/17 01:58:57;;;;;;;15.63;9.57;;;0.90;99.90;;;;;;2039165;28;20364;-65
2024/01/17 01:59:58;;;;;;;15.73;8.20;;;0.80;99.90;;;;;;2044823;28;20219;-65
2024/01/17 02:00:59;;;;;;;12.85;8.30;;;0.90;99.90;;;;;;2051550;28;20651;-64
2024/01/17 02:02:03;;;;;;;14.27;8.82;;;0.90;99.90;;;;;;2046799;28;20597;-65
2024/01/17 02:03:04;;;;;;;16.50;9.75;;;1.00;99.90;;;;;;2042252;28;20259;-65
2024/01/17 02:04:05;;;;;;;13.57;8.93;;;1.00;99.90;;;;;;2043003;28;20198;-65
2024/01/17 02:05:06;;;;;;;16.37;10.90;;;1.10;99.90;;;;;;2042643;28;20241;-65
2024/01/17 02:06:07;;;;;;;14.55;9.38;;;1.10;99.90;;;;;;2046576;28;20279;-65
2024/01/17 02:07:10;;;;;;;19.03;10.83;;;1.00;99.90;;;;;;2041318;28;20196;-65
2024/01/17 02:08:11;;;;;;;18.13;10.35;;;1.00;99.90;;;;;;2034788;29;20210;-65
2024/01/17 02:09:15;;;;;;;19.27;11.13;;;1.10;99.90;;;;;;2044719;28;20271;-65
2024/01/17 02:10:16;;;;;;;20.30;10.07;;;1.10;99.90;;;;;;2045968;28;20213;-65
2024/01/17 02:11:18;;;;;;;17.00;10.00;;;1.20;99.90;;;;;;2050642;28;20193;-65
2024/01/17 02:12:19;;;;;;;19.55;10.38;;;1.30;99.90;;;;;;2045058;28;20197;-65
2024/01/17 02:13:21;;;;;;;14.60;7.97;;;1.20;99.90;;;;;;2043444;28;20186;-65
2024/01/17 02:14:21;;;;;;;15.35;9.45;;;1.30;99.90;;;;;;2048024;28;20307;-65
2024/01/17 02:15:22;;;;;;;16.40;10.33;;;1.40;99.90;;;;;;2050649;28;20226;-64
2024/01/17 02:16:24;;;;;;;16.97;10.00;;;1.50;99.90;;;;;;2049470;28;20324;-64
2024/01/17 02:17:24;;;;;;;14.95;9.60;;;1.50;99.90;;;;;;2037877;29;20224;-65
2024/01/17 02:18:25;;;;;;;16.93;10.03;;;1.50;99.90;;;;;;2042225;28;21679;-65
2024/01/17 02:19:26;;;;;;;15.33;10.00;;;1.60;99.90;;;;;;2045486;28;20263;-65
2024/01/17 02:20:27;;;;;;;17.83;10.40;;;1.50;99.90;;;;;;2037979;29;20261;-65
2024/01/17 02:21:29;;;;;;;15.17;10.40;;;1.60;99.90;;;;;;2051357;28;20257;-65
2024/01/17 02:22:30;;;;;;;16.85;10.05;;;1.60;99.90;;;;;;2049444;28;20233;-65
2024/01/17 02:23:30;;;;;;;16.13;9.67;;;1.60;99.90;;;;;;2039135;28;20245;-65
2024/01/17 02:24:31;;;;;;;22.23;11.53;;;1.60;99.90;;;;;;2047156;28;20241;-65
2024/01/17 02:25:32;;;;;;;12.57;8.30;;;1.60;99.90;;;;;;2044336;28;20656;-65
2024/01/17 02:26:32;;;;;;;19.67;11.33;;;1.50;99.90;;;;;;2048410;28;20310;-65
2024/01/17 02:27:33;;;;;;;19.37;10.50;;;1.50;99.90;;;;;;2050413;28;20314;-65
2024/01/17 02:28:34;;;;;;;13.90;8.37;;;1.50;99.90;;;;;;2047267;28;20292;-65
2024/01/17 02:29:35;;;;;;;13.15;8.52;;;1.40;99.90;;;;;;2045009;28;20235;-65
2024/01/17 02:30:36;;;;;;;14.67;8.53;;;1.40;99.90;;;;;;2048791;28;20240;-67
2024/01/17 02:31:36;;;;;;;21.97;12.43;;;1.40;99.90;;;;;;2046840;28;20236;-65
2024/01/17 02:32:37;;;;;;;17.83;11.03;;;1.40;99.90;;;;;;2047154;28;20314;-65
2024/01/17 02:33:39;;;;;;;18.73;10.07;;;1.40;99.90;;;;;;2045873;28;20266;-65
2024/01/17 02:34:40;;;;;;;13.82;8.95;;;1.30;99.90;;;;;;2054130;28;20234;-65
2024/01/17 02:35:42;;;;;;;17.07;9.13;;;1.40;99.90;;;;;;2048255;28;20316;-65
2024/01/17 02:36:42;;;;;;;15.25;9.50;;;1.40;99.90;;;;;;2048186;28;20232;-65
2024/01/17 02:37:43;;;;;;;22.07;12.33;;;1.40;99.90;;;;;;2048618;28;20229;-65
2024/01/17 02:38:44;;;;;;;15.83;9.50;;;1.40;99.90;;;;;;2047226;28;20613;-65
2024/01/17 02:39:44;;;;;;;22.03;12.13;;;1.40;99.90;;;;;;2049286;28;20223;-65
2024/01/17 02:40:45;;;;;;;22.60;12.77;;;1.40;99.90;;;;;;2046483;28;20242;-65
2024/01/17 02:41:46;;;;;;;11.87;8.37;;;1.40;99.90;;;;;;2041449;28;20219;-65
2024/01/17 02:42:47;;;;;;;15.43;9.30;;;1.40;99.90;;;;;;2041996;28;20268;-65
2024/01/17 02:43:48;;;;;;;14.77;9.52;;;1.40;99.90;;;;;;2047805;28;20229;-65
2024/01/17 02:44:50;;;;;;;17.80;10.67;;;1.40;99.90;;;;;;2043668;28;20699;-65
2024/01/17 02:45:51;;;;;;;15.48;9.70;;;1.50;99.90;;;;;;2051523;28;20240;-65
2024/01/17 02:46:52;;;;;;;20.00;12.03;;;1.50;99.90;;;;;;2048544;28;20218;-65
2024/01/17 02:47:52;;;;;;;13.93;8.70;;;1.60;99.90;;;;;;2048356;28;20225;-65
2024/01/17 02:48:53;;;;;;;15.17;10.07;;;1.60;99.90;;;;;;2049827;28;20232;-65
2024/01/17 02:49:54;;;;;;;20.70;11.73;;;1.60;99.90;;;;;;2040205;28;20232;-65
2024/01/17 02:50:54;;;;;;;17.17;10.37;;;1.60;99.90;;;;;;2043605;28;20753;-65
2024/01/17 02:51:55;;;;;;;17.80;10.63;;;1.70;99.90;;;;;;2050408;28;20222;-65
2024/01/17 02:52:56;;;;;;;16.90;10.23;;;1.70;99.90;;;;;;2048497;28;20222;-65
2024/01/17 02:53:56;;;;;;;16.97;10.07;;;1.70;99.90;;;;;;2047282;28;20217;-65
2024/01/17 02:54:57;;;;;;;18.73;10.70;;;1.70;99.90;;;;;;2038079;28;20703;-65
2024/01/17 02:55:58;;;;;;;16.67;10.17;;;1.70;99.90;;;;;;2042770;28;20224;-65
2024/01/17 02:56:59;;;;;;;19.27;10.63;;;1.80;99.90;;;;;;2051716;28;20225;-65
2024/01/17 02:58:00;;;;;;;17.57;11.13;;;1.90;99.90;;;;;;2048062;28;20668;-65
2024/01/17 02:59:01;;;;;;;17.45;10.90;;;1.90;99.90;;;;;;2046206;28;20269;-65
2024/01/17 03:00:02;;;;;;;17.60;10.93;;;1.80;99.90;;;;;;2045907;28;20266;-65
2024/01/17 03:01:03;;;;;;;17.20;10.63;;;1.80;99.90;;;;;;2046613;28;20232;-65
2024/01/17 03:02:04;;;;;;;15.20;9.15;;;1.80;99.90;;;;;;2046283;28;20266;-65
2024/01/17 03:03:05;;;;;;;16.27;9.83;;;1.80;99.90;;;;;;2051162;28;20191;-65
2024/01/17 03:04:06;;;;;;;17.40;9.90;;;2.00;99.90;;;;;;2049710;28;20187;-64
2024/01/17 03:05:07;;;;;;;16.73;10.13;;;2.00;99.90;;;;;;2048771;28;20197;-65
2024/01/17 03:06:08;;;;;;;19.38;11.07;;;2.10;99.90;;;;;;2048491;28;20196;-65
2024/01/17 03:07:09;;;;;;;14.37;8.93;;;2.10;99.90;;;;;;2047810;28;20192;-66
2024/01/17 03:08:09;;;;;;;14.93;9.17;;;2.10;99.90;;;;;;2048730;28;20214;-65
2024/01/17 03:09:10;;;;;;;16.60;10.17;;;2.10;99.90;;;;;;2048775;28;20220;-65
2024/01/17 03:10:12;;;;;;;13.02;8.98;;;2.10;99.90;;;;;;2048669;28;20274;-65
2024/01/17 03:11:12;;;;;;;17.70;10.63;;;2.00;99.90;;;;;;2046297;28;20246;-65
2024/01/17 03:12:13;;;;;;;12.67;8.37;;;2.00;99.90;;;;;;2045328;28;20276;-65
2024/01/17 03:13:14;;;;;;;16.00;10.30;;;2.00;99.90;;;;;;2051141;28;20337;-65
2024/01/17 03:14:15;;;;;;;16.37;9.93;;;2.00;99.90;;;;;;2047792;28;20191;-65
2024/01/17 03:15:15;;;;;;;16.47;9.93;;;1.80;99.90;;;;;;2048259;28;20655;-65
2024/01/17 03:16:19;;;;;;;16.93;10.13;;;1.70;99.90;;;;;;2046634;28;20674;-65
2024/01/17 03:17:20;;;;;;;16.27;10.15;;;1.60;99.90;;;;;;2047799;28;20179;-65
2024/01/17 03:18:20;;;;;;;18.42;11.23;;;1.60;99.90;;;;;;2046183;28;20217;-65
2024/01/17 03:19:21;;;;;;;24.20;13.07;;;1.50;99.90;;;;;;2037267;28;20238;-65
2024/01/17 03:20:22;;;;;;;19.57;11.57;;;1.40;99.90;;;;;;2045496;28;20236;-65
2024/01/17 03:21:23;;;;;;;16.70;10.40;;;1.30;99.90;;;;;;2046989;28;20229;-65
2024/01/17 03:22:23;;;;;;;19.23;11.17;;;1.20;99.90;;;;;;2049594;28;20232;-64
2024/01/17 03:23:24;;;;;;;18.30;11.33;;;1.20;99.90;;;;;;2048736;28;20708;-65
2024/01/17 03:24:25;;;;;;;18.63;11.43;;;1.20;99.90;;;;;;2050288;28;20227;-65
2024/01/17 03:25:26;;;;;;;19.00;11.57;;;1.20;99.90;;;;;;2050191;28;20231;-65
2024/01/17 03:26:27;;;;;;;16.80;10.63;;;1.20;99.90;;;;;;2049866;28;20311;-65
2024/01/17 03:27:27;;;;;;;16.17;9.03;;;1.30;99.90;;;;;;2050045;28;20375;-65
2024/01/17 03:28:28;;;;;;;15.03;8.97;;;1.30;99.90;;;;;;2049808;28;20243;-65
2024/01/17 03:29:29;;;;;;;21.20;11.70;;;1.30;99.90;;;;;;2047618;28;20736;-65
2024/01/17 03:30:30;;;;;;;18.87;10.87;;;1.30;99.90;;;;;;2049357;28;20229;-65
2024/01/17 03:31:31;;;;;;;17.88;10.20;;;1.40;99.90;;;;;;2047965;28;20767;-65
2024/01/17 03:32:32;;;;;;;15.60;9.40;;;1.40;99.90;;;;;;2048491;28;20294;-65
2024/01/17 03:33:33;;;;;;;16.40;10.00;;;1.50;99.90;;;;;;2048821;28;20747;-65
2024/01/17 03:34:34;;;;;;;16.98;10.90;;;1.50;99.90;;;;;;2047212;28;20265;-64
2024/01/17 03:35:35;;;;;;;19.03;11.07;;;1.50;99.90;;;;;;2045129;28;20229;-65
2024/01/17 03:36:35;;;;;;;16.73;9.97;;;1.50;99.90;;;;;;2046669;28;20632;-65
2024/01/17 03:37:36;;;;;;;14.77;9.83;;;1.50;99.90;;;;;;2050888;28;20230;-65
2024/01/17 03:38:37;;;;;;;14.85;9.60;;;1.60;99.90;;;;;;2049815;28;20260;-65
2024/01/17 03:39:46;;;;;;;15.80;9.10;;;1.50;99.90;;;;;;2050277;28;20229;-65
2024/01/17 03:40:47;;;;;;;19.73;10.13;;;1.60;99.90;;;;;;2049611;28;20221;-65
2024/01/17 03:41:47;;;;;;;17.53;10.50;;;1.70;99.90;;;;;;2048235;28;20226;-65
2024/01/17 03:42:48;;;;;;;17.40;10.43;;;1.70;99.90;;;;;;2053805;28;20726;-64
2024/01/17 03:43:50;;;;;;;20.33;11.80;;;1.80;99.90;;;;;;2051774;28;20222;-66
2024/01/17 03:44:51;;;;;;;20.83;10.82;;;1.80;99.90;;;;;;2051570;28;20221;-65
2024/01/17 03:45:53;;;;;;;18.53;10.40;;;1.80;99.90;;;;;;2054009;28;20221;-65
2024/01/17 03:46:54;;;;;;;17.38;10.10;;;1.80;99.90;;;;;;2051703;28;20284;-66
2024/01/17 03:47:54;;;;;;;20.00;10.73;;;1.90;99.90;;;;;;2051234;28;20761;-65
2024/01/17 03:48:55;;;;;;;21.70;12.23;;;1.90;99.90;;;;;;2054493;28;20230;-65
2024/01/17 03:49:56;;;;;;;17.53;10.20;;;1.90;99.90;;;;;;2051995;28;20219;-65
2024/01/17 03:50:57;;;;;;;18.07;11.00;;;1.80;99.90;;;;;;2051635;28;20604;-65
2024/01/17 03:51:59;;;;;;;17.80;10.98;;;1.80;99.90;;;;;;2051689;28;20225;-65
2024/01/17 03:53:00;;;;;;;23.50;12.20;;;1.80;99.90;;;;;;2050743;28;20222;-65
2024/01/17 03:54:00;;;;;;;18.80;10.83;;;1.80;99.90;;;;;;2051738;28;20229;-65
2024/01/17 03:55:01;;;;;;;18.83;11.77;;;1.80;99.90;;;;;;2050538;28;20218;-66
2024/01/17 03:56:02;;;;;;;25.77;12.57;;;1.80;99.90;;;;;;2051074;28;20235;-65
2024/01/17 03:57:04;;;;;;;17.20;11.13;;;1.90;99.90;;;;;;2047808;28;20287;-64
2024/01/17 03:58:05;;;;;;;22.17;11.82;;;1.80;99.90;;;;;;2048185;28;20747;-65
2024/01/17 03:59:06;;;;;;;15.83;9.87;;;1.90;99.90;;;;;;2048784;28;20263;-64
2024/01/17 04:00:10;;;;;;;19.37;11.43;;;1.90;99.90;;;;;;2052753;28;20566;-65
2024/01/17 04:01:12;;;;;;;19.33;11.55;;;2.00;99.90;;;;;;2052179;28;20693;-65
2024/01/17 04:02:13;;;;;;;21.52;12.77;;;2.00;99.90;;;;;;2052881;28;20619;-65
2024/01/17 04:03:14;;;;;;;16.70;9.83;;;2.10;99.90;;;;;;2052129;28;20197;-64
2024/01/17 04:04:14;;;;;;;17.88;10.18;;;2.00;99.90;;;;;;2052563;28;20675;-64
2024/01/17 04:05:19;;;;;;;18.37;10.40;;;2.00;99.90;;;;;;2052219;28;20196;-65
2024/01/17 04:06:19;;;;;;;19.02;10.82;;;2.00;99.90;;;;;;2050761;28;20248;-65
2024/01/17 04:07:22;;;;;;;20.10;10.93;;;1.90;99.90;;;;;;2051225;28;20194;-65
2024/01/17 04:08:23;;;;;;;20.63;11.57;;;1.80;99.90;;;;;;2051269;28;20330;-65
2024/01/17 04:09:24;;;;;;;21.07;11.33;;;1.90;99.90;;;;;;2051057;28;20226;-65
2024/01/17 04:10:25;;;;;;;25.05;12.75;;;1.90;99.90;;;;;;2051591;28;20236;-65
2024/01/17 04:11:25;;;;;;;20.10;11.23;;;1.80;99.90;;;;;;2042268;28;20227;-65
2024/01/17 04:12:27;;;;;;;19.73;11.23;;;1.80;99.90;;;;;;2042019;28;20228;-65
2024/01/17 04:13:27;;;;;;;17.48;10.75;;;1.80;99.90;;;;;;2050102;28;20344;-65
2024/01/17 04:14:28;;;;;;;20.83;12.13;;;1.90;99.90;;;;;;2050157;28;20746;-65
2024/01/17 04:15:29;;;;;;;24.00;12.10;;;1.80;99.90;;;;;;2049094;28;20245;-65
2024/01/17 04:16:30;;;;;;;18.83;11.13;;;1.90;99.90;;;;;;2049340;28;20236;-65
2024/01/17 04:17:30;;;;;;;20.17;11.47;;;2.00;99.90;;;;;;2049069;28;20234;-65
2024/01/17 04:18:31;;;;;;;19.63;10.47;;;2.00;99.90;;;;;;2050985;28;20233;-65
2024/01/17 04:19:32;;;;;;;26.93;14.40;;;2.10;99.90;;;;;;2053327;28;20316;-65
2024/01/17 04:20:33;;;;;;;23.47;12.87;;;2.10;99.90;;;;;;2044071;28;20566;-65
2024/01/17 04:21:33;;;;;;;16.90;10.23;;;2.20;99.90;;;;;;2049022;28;20315;-66
2024/01/17 04:22:34;;;;;;;15.47;8.87;;;2.10;99.90;;;;;;2053939;28;20229;-66
2024/01/17 04:23:35;;;;;;;24.83;13.53;;;2.10;99.90;;;;;;2051820;28;20233;-65
2024/01/17 04:24:36;;;;;;;22.30;12.38;;;2.10;99.90;;;;;;2052799;28;20237;-65
2024/01/17 04:25:37;;;;;;;16.33;9.73;;;2.10;99.90;;;;;;2052019;28;20234;-66
2024/01/17 04:26:37;;;;;;;17.83;9.80;;;2.10;99.90;;;;;;2051029;28;20242;-66
2024/01/17 04:27:38;;;;;;;16.53;9.73;;;2.00;99.90;;;;;;2050918;28;20288;-65
2024/01/17 04:28:39;;;;;;;21.00;10.70;;;2.10;99.90;;;;;;2049505;28;20604;-66
2024/01/17 04:29:39;;;;;;;17.27;10.00;;;2.10;99.90;;;;;;2050986;28;20235;-65
2024/01/17 04:30:40;;;;;;;22.03;11.70;;;2.20;99.90;;;;;;2042088;28;20262;-65
2024/01/17 04:31:41;;;;;;;22.33;12.63;;;2.20;99.90;;;;;;2038254;29;20597;-65
2024/01/17 04:32:41;;;;;;;21.00;11.83;;;2.30;99.90;;;;;;2042035;28;20262;-65
2024/01/17 04:33:42;;;;;;;27.83;12.73;;;2.30;99.90;;;;;;2040413;28;20225;-65
2024/01/17 04:34:43;;;;;;;18.63;10.27;;;2.30;99.90;;;;;;2050562;28;20238;-65
2024/01/17 04:35:43;;;;;;;18.07;10.30;;;2.30;99.90;;;;;;2050292;28;20606;-65
2024/01/17 04:36:44;;;;;;;16.27;10.40;;;2.30;99.90;;;;;;2044366;28;20309;-65
2024/01/17 04:37:45;;;;;;;17.10;10.23;;;2.30;99.90;;;;;;2044271;28;20233;-65
2024/01/17 04:38:46;;;;;;;16.43;10.33;;;2.40;99.90;;;;;;2053011;28;20221;-65
2024/01/17 04:39:46;;;;;;;18.50;10.60;;;2.40;99.90;;;;;;2051705;28;20222;-65
2024/01/17 04:40:47;;;;;;;20.67;10.17;;;2.40;99.90;;;;;;2050267;28;20303;-65
2024/01/17 04:41:48;;;;;;;20.87;11.70;;;2.50;99.90;;;;;;2046833;28;20238;-65
2024/01/17 04:42:48;;;;;;;22.07;11.00;;;2.40;99.90;;;;;;2043714;28;20228;-65
2024/01/17 04:43:49;;;;;;;16.17;10.00;;;2.40;99.90;;;;;;2051324;28;20568;-64
2024/01/17 04:44:50;;;;;;;19.90;10.60;;;2.50;99.90;;;;;;2050986;28;20276;-66
2024/01/17 04:45:50;;;;;;;18.33;9.73;;;2.60;99.90;;;;;;2049416;28;20703;-65
2024/01/17 04:46:51;;;;;;;17.73;9.63;;;2.50;99.90;;;;;;2049928;28;20292;-65
2024/01/17 04:47:52;;;;;;;16.20;9.70;;;2.50;99.90;;;;;;2049877;28;20308;-66
2024/01/17 04:48:53;;;;;;;15.50;9.10;;;2.50;99.90;;;;;;2052079;28;20230;-65
2024/01/17 04:49:54;;;;;;;17.90;10.63;;;2.50;99.90;;;;;;2049482;28;20646;-66
2024/01/17 04:50:58;;;;;;;16.97;9.90;;;2.60;99.90;;;;;;2048604;28;20584;-66
2024/01/17 04:51:59;;;;;;;23.00;11.65;;;2.50;99.90;;;;;;2048643;28;20217;-65
2024/01/17 04:53:00;;;;;;;17.97;10.57;;;2.50;99.90;;;;;;2048502;28;20699;-66
2024/01/17 04:54:01;;;;;;;17.57;9.90;;;2.50;99.90;;;;;;2047112;28;20722;-65
2024/01/17 04:55:02;;;;;;;17.58;10.40;;;2.50;99.90;;;;;;2047433;28;20567;-65
2024/01/17 04:56:06;;;;;;;15.83;8.63;;;2.40;99.90;;;;;;2050447;28;20197;-65
2024/01/17 04:57:06;;;;;;;15.68;9.40;;;2.40;99.90;;;;;;2052849;28;20205;-66
2024/01/17 04:58:07;;;;;;;17.73;9.90;;;2.50;99.90;;;;;;2051816;28;20185;-65
2024/01/17 04:59:08;;;;;;;22.50;11.80;;;2.50;99.90;;;;;;2052814;28;20194;-65
2024/01/17 05:00:12;;;;;;;16.33;9.47;;;2.40;99.90;;;;;;2051961;28;20240;-65
2024/01/17 05:01:13;;;;;;;17.90;9.48;;;2.30;99.90;;;;;;2050979;28;20276;-66
2024/01/17 05:02:13;;;;;;;23.97;12.63;;;2.40;99.90;;;;;;2051755;28;20193;-65
2024/01/17 05:03:15;;;;;;;19.30;11.27;;;2.40;99.90;;;;;;2050743;28;20191;-66
2024/01/17 05:04:16;;;;;;;17.75;10.00;;;2.40;99.90;;;;;;2053290;28;20198;-65
2024/01/17 05:05:16;;;;;;;21.67;12.60;;;2.40;99.90;;;;;;2050538;28;20283;-66
2024/01/17 05:06:18;;;;;;;17.50;10.60;;;2.40;99.90;;;;;;2050438;28;20221;-65
2024/01/17 05:07:19;;;;;;;18.65;10.43;;;2.40;99.90;;;;;;2051457;28;20678;-66
2024/01/17 05:08:19;;;;;;;15.33;8.87;;;2.50;99.90;;;;;;2051596;28;20297;-66
2024/01/17 05:09:21;;;;;;;14.80;9.00;;;2.40;99.90;;;;;;2050421;28;20190;-65
2024/01/17 05:10:23;;;;;;;21.33;11.48;;;2.50;99.90;;;;;;2050828;28;20240;-65
2024/01/17 05:11:25;;;;;;;17.27;10.57;;;2.50;99.90;;;;;;2050271;28;20233;-65
2024/01/17 05:12:25;;;;;;;16.88;9.13;;;2.50;99.90;;;;;;2049070;28;20239;-65
2024/01/17 05:13:26;;;;;;;22.67;12.87;;;2.50;99.90;;;;;;2048768;28;20229;-66
2024/01/17 05:14:27;;;;;;;20.13;11.27;;;2.60;99.90;;;;;;2052293;28;20234;-65
2024/01/17 05:15:27;;;;;;;19.87;10.93;;;2.50;99.90;;;;;;2051902;28;20342;-66